Time;durP1;ratioP1;P1;durP2;ratioP2;P2;SDS_P1;SDS_P2;PMS_P1;PMS_P2;Temp;Humidity;BMP_temperature;BMP_pressure;BME280_temperature;BME280_humidity;BME280_pressure;Samples;Min_cycle;Max_cycle;Signal;HPM_P1;HPM_P2
2022/09/26 00:06:26;;;;;;;0.43;0.30;;;;;;;16.96;96.36;100434.38;20872694;27;20049;-74
2022/09/26 00:16:28;;;;;;;0.30;0.30;;;;;;;16.93;96.31;100418.53;20898432;27;20054;-74
2022/09/26 00:26:32;;;;;;;0.50;0.30;;;;;;;17.03;96.39;100410.50;21218957;27;20453;-74
2022/09/26 00:36:33;;;;;;;0.60;0.40;;;;;;;17.03;96.20;100385.44;21218776;27;20552;-74
2022/09/26 00:46:42;;;;;;;0.55;0.30;;;;;;;17.03;96.29;100361.25;21218979;27;20043;-74
2022/09/26 00:56:48;;;;;;;1.48;0.55;;;;;;;17.02;95.87;100336.19;21216544;27;20059;-74
2022/09/26 01:06:50;;;;;;;0.30;0.28;;;;;;;17.02;96.25;100313.81;21218275;27;20050;-74
2022/09/26 01:16:52;;;;;;;0.40;0.30;;;;;;;17.01;96.13;100296.81;21128652;27;20047;-74
2022/09/26 01:27:27;;;;;;;0.35;0.30;;;;;;;16.85;96.16;100245.47;21197778;27;20132;-74
2022/09/26 01:37:47;;;;;;;0.40;0.30;;;;;;;17.01;96.09;100255.66;21197215;27;20453;-74
2022/09/26 01:47:53;;;;;;;0.30;0.28;;;;;;;16.92;96.18;100222.38;21196049;27;20147;-74
2022/09/26 01:58:02;;;;;;;0.60;0.30;;;;;;;16.99;95.92;100223.53;21212794;27;20065;-74
2022/09/26 02:08:14;;;;;;;0.65;0.40;;;;;;;17.01;95.87;100204.56;21179177;27;20051;-74
2022/09/26 02:18:22;;;;;;;0.57;0.30;;;;;;;17.01;95.92;100185.75;21154125;27;20067;-74
2022/09/26 02:28:24;;;;;;;;;;;;;;;17.00;95.95;100165.22;21212407;27;20047;-74
2022/09/26 02:38:28;;;;;;;0.43;0.30;;;;;;;17.00;95.82;100152.63;21193856;27;19923;-74
2022/09/26 02:48:41;;;;;;;0.40;0.40;;;;;;;17.00;95.98;100138.34;21194662;27;20467;-74
2022/09/26 02:58:53;;;;;;;0.28;0.20;;;;;;;16.95;95.78;100119.91;21194087;27;20047;-74
2022/09/26 03:08:55;;;;;;;0.60;0.32;;;;;;;17.00;95.74;100114.13;21208707;27;20047;-74
2022/09/26 03:19:04;;;;;;;0.40;0.40;;;;;;;16.72;95.68;100057.63;21129436;27;20051;-74
2022/09/26 03:29:06;;;;;;;0.28;0.28;;;;;;;16.99;95.66;100078.31;21224712;27;20065;-74
2022/09/26 03:39:09;;;;;;;0.43;0.25;;;;;;;17.00;95.71;100052.28;21223886;27;20130;-74
2022/09/26 03:49:22;;;;;;;0.28;0.20;;;;;;;17.00;95.48;100036.16;21219964;27;20100;-74
2022/09/26 03:59:24;;;;;;;0.43;0.28;;;;;;;16.98;95.65;100019.34;21221399;27;20059;-74
2022/09/26 04:09:26;;;;;;;0.35;0.30;;;;;;;17.00;95.52;100003.91;21207295;27;20054;-74
2022/09/26 04:19:28;;;;;;;0.90;0.40;;;;;;;16.66;96.21;99928.25;20767375;27;20058;-75
2022/09/26 04:29:31;;;;;;;2.08;0.50;;;;;;;17.06;95.46;99950.34;20756363;27;20128;-75
2022/09/26 04:39:40;;;;;;;1.50;0.40;;;;;;;17.15;94.44;99926.22;20726373;27;20050;-75
2022/09/26 04:49:42;;;;;;;0.95;0.50;;;;;;;17.19;93.83;99912.28;20749620;27;20041;-75
2022/09/26 04:59:45;;;;;;;0.57;0.52;;;;;;;17.13;93.36;99875.25;20778686;27;20048;-75
2022/09/26 05:09:47;;;;;;;3.58;0.80;;;;;;;17.28;94.58;99882.78;20715245;27;20117;-75
2022/09/26 05:19:51;;;;;;;2.38;0.60;;;;;;;17.30;96.50;99859.25;20738532;27;20079;-74
2022/09/26 05:29:58;;;;;;;1.70;0.70;;;;;;;17.30;98.04;99833.19;20794078;27;20045;-74
2022/09/26 05:50:26;;;;;;;1.27;0.50;;;;;;;17.30;98.96;99810.84;20815288;27;20463;-77
2022/09/26 06:00:27;;;;;;;1.25;0.52;;;;;;;17.31;99.24;99810.66;20784723;27;20049;-74
2022/09/26 06:10:30;;;;;;;2.30;1.23;;;;;;;17.21;99.36;99783.88;20814434;27;20141;-75
2022/09/26 06:20:34;;;;;;;0.83;0.33;;;;;;;17.30;98.38;99779.41;20741213;27;20050;-75
2022/09/26 06:30:36;;;;;;;1.55;0.50;;;;;;;17.29;97.45;99760.75;20711561;27;20297;-75
2022/09/26 06:40:46;;;;;;;1.70;0.63;;;;;;;17.29;97.29;99749.97;20707821;27;20045;-75
2022/09/26 06:50:52;;;;;;;0.73;0.60;;;;;;;17.28;96.98;99721.41;20743044;27;20054;-75
2022/09/26 07:00:55;;;;;;;1.00;0.40;;;;;;;17.28;97.05;99708.78;20722759;27;20042;-75
2022/09/26 07:11:32;;;;;;;0.68;0.40;;;;;;;17.29;96.88;99696.19;20641441;27;20074;-75
2022/09/26 07:21:54;;;;;;;1.17;0.47;;;;;;;17.29;96.91;99688.13;20727840;27;20056;-75
2022/09/26 07:32:19;;;;;;;1.17;0.40;;;;;;;17.28;97.07;99678.34;20728424;27;20057;-75
2022/09/26 07:42:44;;;;;;;0.88;0.30;;;;;;;17.29;97.46;99658.53;20699903;27;20809;-78
2022/09/26 07:53:05;;;;;;;1.48;0.57;;;;;;;17.28;97.62;99651.47;20720880;27;20172;-76
2022/09/26 08:03:41;;;;;;;1.75;0.50;;;;;;;17.26;97.47;99630.09;20704199;28;20054;-77
2022/09/26 08:13:54;;;;;;;1.10;0.85;;;;;;;17.15;97.85;99620.47;20732973;27;20053;-74
2022/09/26 08:24:14;;;;;;;0.75;0.40;;;;;;;17.21;98.12;99619.81;20752762;27;20045;-74
2022/09/26 08:34:30;;;;;;;1.60;0.60;;;;;;;17.21;98.40;99609.06;20707962;27;20053;-74
2022/09/26 08:46:35;;;;;;;3.17;0.70;;;;;;;17.20;98.42;99610.06;20702833;27;20505;-74
2022/09/26 08:55:57;;;;;;;5.43;0.90;;;;;;;17.10;98.93;99563.66;20746144;27;20042;-74
2022/09/26 09:06:04;;;;;;;1.65;0.57;;;;;;;17.23;99.04;99555.97;20713291;27;20433;-74
2022/09/26 09:16:52;;;;;;;1.75;0.60;;;;;;;17.32;97.46;99540.66;20675807;27;20175;-75
2022/09/26 09:27:55;;;;;;;2.97;0.68;;;;;;;17.30;97.06;99525.72;20704908;28;20139;-75
2022/09/26 09:38:13;;;;;;;1.25;0.70;;;;;;;17.26;96.87;99522.50;20687391;28;20429;-74
2022/09/26 09:48:30;;;;;;;0.93;0.50;;;;;;;17.24;96.98;99500.31;20690457;27;20053;-74
2022/09/26 09:58:37;;;;;;;2.38;0.70;;;;;;;17.22;96.91;99497.78;20712417;27;20078;-75
2022/09/26 10:08:41;;;;;;;2.33;1.20;;;;;;;16.91;97.00;99441.06;20686719;27;20523;-74
2022/09/26 10:19:07;;;;;;;3.10;0.60;;;;;;;17.20;97.21;99472.91;20766575;27;20037;-74
2022/09/26 10:29:23;;;;;;;1.23;0.52;;;;;;;17.18;97.11;99458.78;20811116;27;20084;-74
2022/09/26 10:49:53;;;;;;;1.52;0.70;;;;;;;17.17;97.09;99434.75;20764260;27;20132;-74
2022/09/26 11:00:37;;;;;;;1.75;0.52;;;;;;;17.16;97.01;99425.84;20724550;27;20054;-74
2022/09/26 11:10:48;;;;;;;1.73;0.50;;;;;;;17.08;96.79;99402.50;20721296;27;20803;-74
2022/09/26 11:21:20;;;;;;;2.75;0.60;;;;;;;17.15;96.91;99418.78;20704365;27;20045;-74
2022/09/26 11:31:35;;;;;;;2.00;0.60;;;;;;;16.57;96.80;99308.53;20714348;27;20418;-75
2022/09/26 11:42:36;;;;;;;0.88;0.40;;;;;;;17.14;96.85;99392.91;20705858;27;20050;-74
2022/09/26 11:52:51;;;;;;;0.85;0.50;;;;;;;17.14;96.89;99379.44;20677194;27;20041;-74
2022/09/26 12:03:32;;;;;;;0.80;0.47;;;;;;;17.13;96.90;99364.31;20718792;27;20055;-74
2022/09/26 12:13:48;;;;;;;2.05;0.60;;;;;;;17.14;96.94;99349.88;20706119;27;20068;-75
2022/09/26 12:23:53;;;;;;;;;;;;;;;17.13;96.83;99345.50;20695799;27;20085;-75
2022/09/26 12:34:19;;;;;;;0.63;0.63;;;;;;;17.13;96.87;99336.63;20715377;27;19939;-75
2022/09/26 12:44:36;;;;;;;0.82;0.40;;;;;;;17.11;96.85;99323.31;20735991;27;20064;-75
2022/09/26 12:55:00;;;;;;;0.70;0.50;;;;;;;17.12;96.92;99321.50;20734442;27;20736;-75
2022/09/26 13:05:13;;;;;;;0.75;0.40;;;;;;;17.11;97.00;99312.56;20697640;27;20054;-74
2022/09/26 13:15:22;;;;;;;1.20;0.43;;;;;;;17.07;97.12;99298.66;20715892;27;20147;-74
2022/09/26 13:25:49;;;;;;;0.50;0.35;;;;;;;17.11;97.01;99307.19;20697498;27;20068;-75
2022/09/26 13:35:52;;;;;;;0.63;0.40;;;;;;;17.12;97.37;99287.34;20724672;27;20077;-75
2022/09/26 13:46:04;;;;;;;0.52;0.45;;;;;;;17.06;97.43;99269.22;20706124;27;20050;-75
2022/09/26 13:56:34;;;;;;;0.80;0.50;;;;;;;17.13;97.49;99272.91;20736148;27;20176;-75
2022/09/26 14:06:36;;;;;;;0.68;0.40;;;;;;;17.12;97.42;99268.53;20715004;27;20685;-75
2022/09/26 14:16:37;;;;;;;0.93;0.43;;;;;;;17.13;97.49;99261.31;20731196;27;20072;-75
2022/09/26 14:26:43;;;;;;;0.68;0.40;;;;;;;17.12;97.57;99240.81;20723270;27;20049;-74
2022/09/26 14:36:44;;;;;;;;;;;;;;;17.12;97.31;99222.81;20722250;27;20679;-75
2022/09/26 14:46:51;;;;;;;0.57;0.35;;;;;;;17.12;97.47;99222.81;20726129;27;20415;-75
2022/09/26 14:57:02;;;;;;;1.02;0.38;;;;;;;16.20;97.55;99060.09;20713437;27;20181;-75
2022/09/26 15:07:11;;;;;;;0.50;0.30;;;;;;;17.04;97.51;99185.22;20723624;27;20050;-75
2022/09/26 15:17:19;;;;;;;0.55;0.32;;;;;;;17.10;97.43;99188.06;20782026;27;20413;-75
2022/09/26 15:27:26;;;;;;;0.75;0.30;;;;;;;17.01;97.38;99161.38;20729670;27;20121;-74
2022/09/26 15:37:32;;;;;;;0.52;0.40;;;;;;;17.09;97.32;99166.72;20718342;27;20058;-74
2022/09/26 15:47:34;;;;;;;0.20;0.20;;;;;;;17.11;97.59;99164.69;20740231;27;20060;-74
2022/09/26 15:57:35;;;;;;;0.30;0.30;;;;;;;17.10;97.57;99171.06;20707452;27;20056;-74
2022/09/26 16:07:37;;;;;;;0.40;0.30;;;;;;;17.10;97.50;99165.69;20703503;27;20497;-74
2022/09/26 16:17:42;;;;;;;0.82;0.43;;;;;;;17.08;97.46;99152.44;20712764;27;20068;-74
2022/09/26 16:27:51;;;;;;;0.52;0.40;;;;;;;17.05;97.32;99146.56;20719811;27;20046;-74
2022/09/26 16:37:58;;;;;;;0.80;0.57;;;;;;;17.09;97.51;99154.13;20724124;27;20129;-74
2022/09/26 16:47:59;;;;;;;0.90;0.30;;;;;;;17.09;97.49;99143.38;20706023;27;20073;-74
2022/09/26 16:58:03;;;;;;;0.80;0.50;;;;;;;17.09;97.77;99146.06;20728008;27;20077;-75
2022/09/26 17:08:08;;;;;;;1.13;0.65;;;;;;;16.81;97.88;99102.63;20709403;27;20057;-74
2022/09/26 17:18:10;;;;;;;1.80;0.77;;;;;;;17.10;98.29;99144.19;20788479;27;20115;-74
2022/09/26 17:28:17;;;;;;;1.17;0.60;;;;;;;17.09;98.21;99137.13;20738146;27;20045;-74
2022/09/26 17:38:19;;;;;;;0.77;0.50;;;;;;;17.08;98.46;99143.53;20752556;27;20153;-74
2022/09/26 17:48:25;;;;;;;1.00;0.70;;;;;;;17.08;98.42;99140.84;20762374;27;20049;-74
2022/09/26 17:58:26;;;;;;;0.75;0.45;;;;;;;16.86;98.74;99100.25;20743918;27;20077;-74
2022/09/26 18:08:36;;;;;;;0.90;0.73;;;;;;;17.07;98.69;99134.63;20752858;27;20061;-74
2022/09/26 18:18:37;;;;;;;1.85;0.55;;;;;;;17.07;98.54;99118.50;20746995;27;20057;-74
2022/09/26 18:28:39;;;;;;;0.98;0.73;;;;;;;17.08;98.64;99122.88;20727913;27;20095;-75
2022/09/26 18:38:40;;;;;;;1.85;0.60;;;;;;;17.06;98.67;99122.22;20732930;27;20074;-75
2022/09/26 18:48:42;;;;;;;0.55;0.52;;;;;;;17.06;98.66;99118.66;20931526;27;20489;-74
2022/09/26 18:58:46;;;;;;;0.70;0.50;;;;;;;16.70;98.50;99070.72;21206249;27;20516;-75
2022/09/26 19:08:50;;;;;;;0.95;0.57;;;;;;;17.06;98.59;99132.09;21228608;27;20112;-74
2022/09/26 19:18:52;;;;;;;0.65;0.50;;;;;;;17.07;98.38;99128.41;21231990;27;20062;-79
2022/09/26 19:28:54;;;;;;;0.57;0.50;;;;;;;17.06;98.35;99140.16;21206201;27;20569;-75
2022/09/26 19:38:55;;;;;;;0.40;0.40;;;;;;;17.05;98.52;99133.97;21215994;27;20051;-74
2022/09/26 19:48:57;;;;;;;0.60;0.50;;;;;;;16.83;98.62;99089.84;21148431;27;20143;-75
2022/09/26 19:58:59;;;;;;;0.75;0.50;;;;;;;17.05;98.46;99119.69;21223622;27;20057;-75
2022/09/26 20:09:00;;;;;;;0.45;0.30;;;;;;;16.89;98.41;99097.19;21221181;27;20407;-75
2022/09/26 20:19:04;;;;;;;0.95;0.55;;;;;;;17.00;98.39;99116.69;21222806;27;20047;-78
2022/09/26 20:29:11;;;;;;;0.55;0.32;;;;;;;16.85;98.41;99090.50;21219507;27;20095;-76
2022/09/26 20:39:17;;;;;;;0.40;0.32;;;;;;;17.03;98.33;99125.25;21220620;27;20103;-74
2022/09/26 20:49:21;;;;;;;0.68;0.50;;;;;;;17.04;98.28;99134.13;21175143;27;20043;-74
2022/09/26 20:59:24;;;;;;;0.50;0.40;;;;;;;17.03;98.23;99117.19;21218520;27;20049;-74
2022/09/26 21:09:25;;;;;;;0.40;0.30;;;;;;;17.03;98.20;99117.19;21217080;27;20430;-75
2022/09/26 21:19:29;;;;;;;1.27;0.30;;;;;;;17.04;98.51;99115.31;21217476;27;20116;-75
2022/09/26 21:29:40;;;;;;;0.40;0.30;;;;;;;17.03;98.23;99121.69;21215366;27;20483;-74
2022/09/26 21:39:41;;;;;;;0.55;0.40;;;;;;;17.04;98.33;99126.06;21214302;27;20043;-75
2022/09/26 21:49:44;;;;;;;0.60;0.60;;;;;;;17.04;98.20;99120.69;21149434;27;20051;-75
2022/09/26 21:59:47;;;;;;;0.38;0.30;;;;;;;17.03;98.28;99116.31;21214532;27;20051;-75
2022/09/26 22:09:48;;;;;;;0.30;0.20;;;;;;;17.03;98.24;99105.56;21213524;27;20055;-74
2022/09/26 22:19:51;;;;;;;0.32;0.22;;;;;;;16.76;98.11;99067.34;21211332;27;20055;-75
2022/09/26 22:29:53;;;;;;;0.43;0.40;;;;;;;17.01;98.12;99107.59;21213098;27;20151;-74
2022/09/26 22:39:55;;;;;;;0.50;0.30;;;;;;;17.02;98.24;99098.53;21212984;27;20055;-75
2022/09/26 22:49:56;;;;;;;1.02;0.30;;;;;;;17.01;98.03;99096.84;21125993;27;20055;-75
2022/09/26 22:59:58;;;;;;;0.32;0.32;;;;;;;17.01;98.02;99091.47;21211722;27;20137;-75
2022/09/26 23:09:59;;;;;;;0.65;0.47;;;;;;;17.02;98.01;99093.16;21210053;27;20964;-75
2022/09/26 23:20:01;;;;;;;0.30;0.30;;;;;;;17.02;97.80;99091.31;21218557;27;20047;-75
2022/09/26 23:30:03;;;;;;;0.22;0.22;;;;;;;16.93;97.83;99076.16;21224831;27;20055;-78
2022/09/26 23:40:05;;;;;;;1.90;0.30;;;;;;;16.93;97.85;99073.47;21216571;27;20059;-75
2022/09/26 23:50:07;;;;;;;0.30;0.30;;;;;;;17.00;97.88;99090.63;21156098;27;20494;-75
